Time;durP1;ratioP1;P1;durP2;ratioP2;P2;SDS_P1;SDS_P2;PMS_P1;PMS_P2;Temp;Humidity;BMP_temperature;BMP_pressure;BME280_temperature;BME280_humidity;BME280_pressure;Samples;Min_cycle;Max_cycle;Signal;HPM_P1;HPM_P2
2023/04/29 00:01:08;;;;;;;10.70;7.20;;;;;;;;;;4975396;28;20035;-78
2023/04/29 00:03:34;;;;;;;13.40;6.63;;;;;;;;;;4976142;28;20150;-79
2023/04/29 00:06:01;;;;;;;12.27;7.03;;;;;;;;;;4976681;28;20120;-79
2023/04/29 00:08:26;;;;;;;10.77;7.47;;;;;;;;;;4975947;28;20015;-79
2023/04/29 00:10:52;;;;;;;12.15;6.82;;;;;;;;;;4975966;28;20038;-79
2023/04/29 00:13:18;;;;;;;8.68;6.50;;;;;;;;;;4976399;28;20018;-78
2023/04/29 00:15:44;;;;;;;13.85;7.65;;;;;;;;;;4976378;28;20031;-78
2023/04/29 00:18:10;;;;;;;14.70;7.57;;;;;;;;;;4975908;28;20528;-78
2023/04/29 00:20:38;;;;;;;16.50;8.02;;;;;;;;;;4976659;28;20093;-79
2023/04/29 00:23:03;;;;;;;16.42;6.78;;;;;;;;;;4976501;28;20023;-78
2023/04/29 00:25:29;;;;;;;10.45;6.47;;;;;;;;;;4976767;28;20037;-79
2023/04/29 00:27:58;;;;;;;12.25;6.97;;;;;;;;;;4976359;28;20113;-79
2023/04/29 00:30:24;;;;;;;14.93;7.25;;;;;;;;;;4990358;28;20067;-79
2023/04/29 00:32:52;;;;;;;11.70;6.97;;;;;;;;;;4975770;28;20041;-80
2023/04/29 00:35:17;;;;;;;19.17;8.18;;;;;;;;;;4990780;28;20035;-78
2023/04/29 00:37:44;;;;;;;9.65;7.07;;;;;;;;;;4975945;28;20489;-78
2023/04/29 00:40:12;;;;;;;11.95;7.35;;;;;;;;;;4974665;28;20072;-79
2023/04/29 00:42:38;;;;;;;9.05;6.95;;;;;;;;;;5000981;28;20041;-79
2023/04/29 00:45:04;;;;;;;13.68;7.15;;;;;;;;;;5003067;28;20039;-79
2023/04/29 00:47:30;;;;;;;13.35;7.53;;;;;;;;;;4962815;28;20030;-79
2023/04/29 00:49:56;;;;;;;11.07;7.47;;;;;;;;;;4958325;28;20041;-80
2023/04/29 00:52:22;;;;;;;11.38;7.63;;;;;;;;;;4973821;28;20400;-79
2023/04/29 00:54:47;;;;;;;14.68;8.18;;;;;;;;;;4990587;28;20034;-79
2023/04/29 00:57:14;;;;;;;10.65;8.00;;;;;;;;;;4974229;28;20037;-79
2023/04/29 00:59:40;;;;;;;9.90;6.78;;;;;;;;;;4975283;28;20031;-79
2023/04/29 01:02:07;;;;;;;14.07;8.15;;;;;;;;;;4990710;28;20057;-79
2023/04/29 01:04:32;;;;;;;14.30;7.18;;;;;;;;;;4990360;28;20450;-79
2023/04/29 01:07:14;;;;;;;11.85;7.10;;;;;;;;;;4975612;28;20393;-80
2023/04/29 01:09:52;;;;;;;13.32;7.50;;;;;;;;;;4973973;28;20034;-79
2023/04/29 01:12:46;;;;;;;11.07;7.07;;;;;;;;;;4974631;28;20513;-79
2023/04/29 01:15:13;;;;;;;14.05;7.35;;;;;;;;;;4973854;28;20074;-79
2023/04/29 01:17:41;;;;;;;11.38;7.05;;;;;;;;;;4974181;28;20486;-78
2023/04/29 01:20:09;;;;;;;9.57;6.60;;;;;;;;;;4990094;28;20093;-79
2023/04/29 01:22:38;;;;;;;9.05;6.78;;;;;;;;;;4973032;28;20038;-79
2023/04/29 01:25:08;;;;;;;12.30;7.05;;;;;;;;;;4990109;28;20035;-79
2023/04/29 01:28:17;;;;;;;10.25;5.85;;;;;;;;;;4990399;28;20035;-80
2023/04/29 01:31:11;;;;;;;11.88;6.57;;;;;;;;;;4989922;28;20043;-79
2023/04/29 01:34:08;;;;;;;9.35;5.85;;;;;;;;;;4966971;28;20085;-79
2023/04/29 01:36:50;;;;;;;10.57;5.65;;;;;;;;;;4942518;28;20038;-78
2023/04/29 01:39:34;;;;;;;9.85;5.47;;;;;;;;;;4973175;28;20039;-78
2023/04/29 01:42:25;;;;;;;11.02;6.15;;;;;;;;;;4989731;28;20062;-78
2023/04/29 01:44:56;;;;;;;8.98;5.80;;;;;;;;;;4989767;28;20500;-78
2023/04/29 01:47:25;;;;;;;8.27;5.78;;;;;;;;;;4973520;28;20094;-79
2023/04/29 01:49:53;;;;;;;11.35;6.13;;;;;;;;;;4989178;28;20030;-79
2023/04/29 01:52:21;;;;;;;11.43;6.35;;;;;;;;;;4989388;28;20488;-79
2023/04/29 01:54:56;;;;;;;11.68;6.35;;;;;;;;;;4989040;28;20126;-79
2023/04/29 01:57:23;;;;;;;15.68;6.50;;;;;;;;;;4972694;28;20031;-79
2023/04/29 02:00:21;;;;;;;10.40;6.60;;;;;;;;;;4949780;28;20531;-79
2023/04/29 02:02:50;;;;;;;9.60;6.53;;;;;;;;;;4989142;28;20041;-79
2023/04/29 02:05:45;;;;;;;12.35;6.35;;;;;;;;;;4961300;28;20034;-79
2023/04/29 02:08:12;;;;;;;8.68;6.60;;;;;;;;;;4972667;28;20038;-79
2023/04/29 02:10:51;;;;;;;16.55;6.75;;;;;;;;;;4988624;28;20046;-78
2023/04/29 02:13:27;;;;;;;11.00;6.45;;;;;;;;;;4989225;28;20033;-79
2023/04/29 02:15:53;;;;;;;13.32;6.97;;;;;;;;;;4972991;28;20125;-78
2023/04/29 02:18:20;;;;;;;11.88;6.53;;;;;;;;;;4988862;28;20488;-79
2023/04/29 02:20:49;;;;;;;10.45;6.60;;;;;;;;;;4972612;28;20041;-79
2023/04/29 02:23:16;;;;;;;11.55;6.28;;;;;;;;;;4972876;28;20039;-79
2023/04/29 02:25:42;;;;;;;8.95;6.18;;;;;;;;;;4956694;28;20031;-79
2023/04/29 02:28:08;;;;;;;9.10;6.57;;;;;;;;;;4956715;28;20515;-79
2023/04/29 02:30:34;;;;;;;9.05;6.78;;;;;;;;;;4973573;28;20508;-79
2023/04/29 02:33:01;;;;;;;9.98;6.30;;;;;;;;;;4972576;28;20033;-79
2023/04/29 02:35:27;;;;;;;10.82;6.15;;;;;;;;;;4973759;28;20035;-79
2023/04/29 02:37:55;;;;;;;9.18;6.53;;;;;;;;;;4971989;28;20093;-79
2023/04/29 02:40:24;;;;;;;10.55;6.60;;;;;;;;;;4972040;28;20042;-79
2023/04/29 02:42:50;;;;;;;9.10;6.10;;;;;;;;;;4972267;28;20023;-78
2023/04/29 02:45:16;;;;;;;12.18;7.00;;;;;;;;;;4972427;28;20397;-79
2023/04/29 02:47:43;;;;;;;9.63;6.28;;;;;;;;;;4988553;28;20520;-79
2023/04/29 02:50:09;;;;;;;11.35;6.70;;;;;;;;;;4971986;28;20122;-79
2023/04/29 02:52:35;;;;;;;9.15;6.82;;;;;;;;;;4987679;28;20035;-79
2023/04/29 02:55:01;;;;;;;23.25;7.88;;;;;;;;;;4988374;28;20174;-77
2023/04/29 02:57:28;;;;;;;18.13;6.95;;;;;;;;;;4972413;28;20109;-79
2023/04/29 02:59:54;;;;;;;13.75;6.72;;;;;;;;;;4971794;28;20038;-80
2023/04/29 03:02:20;;;;;;;16.27;7.70;;;;;;;;;;4973430;28;20049;-80
2023/04/29 03:04:51;;;;;;;10.70;6.47;;;;;;;;;;4971916;28;20044;-79
2023/04/29 03:07:17;;;;;;;10.43;7.00;;;;;;;;;;4988144;28;20508;-79
2023/04/29 03:09:44;;;;;;;10.55;6.53;;;;;;;;;;4987844;28;20089;-79
2023/04/29 03:12:10;;;;;;;10.07;6.18;;;;;;;;;;4956152;28;20524;-79
2023/04/29 03:14:36;;;;;;;9.63;6.22;;;;;;;;;;4988034;28;20496;-78
2023/04/29 03:17:03;;;;;;;8.30;6.13;;;;;;;;;;4972202;28;20042;-78
2023/04/29 03:19:29;;;;;;;10.35;7.03;;;;;;;;;;4987344;28;20035;-80
2023/04/29 03:21:55;;;;;;;9.07;6.90;;;;;;;;;;4987916;28;20365;-79
2023/04/29 03:24:21;;;;;;;16.73;7.15;;;;;;;;;;4971773;28;20030;-80
2023/04/29 03:26:47;;;;;;;11.65;6.55;;;;;;;;;;4987890;28;20055;-79
2023/04/29 03:29:13;;;;;;;9.27;6.63;;;;;;;;;;4986779;28;20130;-79
2023/04/29 03:31:39;;;;;;;8.73;6.57;;;;;;;;;;4988059;28;20101;-79
2023/04/29 03:34:04;;;;;;;12.18;6.70;;;;;;;;;;4971329;28;20053;-80
2023/04/29 03:36:34;;;;;;;11.45;6.30;;;;;;;;;;4986623;28;20083;-79
2023/04/29 03:39:04;;;;;;;22.55;7.95;;;;;;;;;;4971321;28;20365;-78
2023/04/29 03:41:29;;;;;;;24.95;8.07;;;;;;;;;;4988554;28;20126;-79
2023/04/29 03:44:00;;;;;;;12.75;7.22;;;;;;;;;;4987669;28;20415;-79
2023/04/29 03:46:27;;;;;;;13.98;8.00;;;;;;;;;;4972588;28;20027;-79
2023/04/29 03:48:54;;;;;;;10.50;7.13;;;;;;;;;;4975797;28;20029;-80
2023/04/29 03:51:25;;;;;;;14.05;7.05;;;;;;;;;;4987356;28;20045;-79
2023/04/29 03:53:58;;;;;;;12.40;6.93;;;;;;;;;;4972828;28;20031;-78
2023/04/29 03:56:24;;;;;;;11.75;6.60;;;;;;;;;;4987812;28;20126;-79
2023/04/29 03:58:51;;;;;;;11.95;6.97;;;;;;;;;;4988296;28;20405;-80
2023/04/29 04:01:19;;;;;;;11.18;7.30;;;;;;;;;;4987273;28;20119;-79
2023/04/29 04:03:45;;;;;;;10.52;7.68;;;;;;;;;;4987910;28;20025;-79
2023/04/29 04:06:12;;;;;;;14.43;7.57;;;;;;;;;;4988011;28;20041;-79
2023/04/29 04:08:39;;;;;;;11.25;7.90;;;;;;;;;;4939659;28;20023;-78
2023/04/29 04:11:14;;;;;;;14.27;7.90;;;;;;;;;;4971452;28;20042;-78
2023/04/29 04:13:44;;;;;;;15.05;8.38;;;;;;;;;;4972750;28;20041;-78
2023/04/29 04:16:11;;;;;;;11.05;8.05;;;;;;;;;;4987906;28;20026;-79
2023/04/29 04:18:37;;;;;;;13.85;8.27;;;;;;;;;;4979728;28;20029;-77
2023/04/29 04:21:08;;;;;;;17.27;9.52;;;;;;;;;;4971138;28;20031;-79
2023/04/29 04:23:36;;;;;;;18.50;9.13;;;;;;;;;;4987631;28;20034;-78
2023/04/29 04:26:03;;;;;;;14.35;8.02;;;;;;;;;;4971256;28;20097;-79
2023/04/29 04:28:58;;;;;;;11.82;7.82;;;;;;;;;;4960047;28;20425;-78
2023/04/29 04:31:42;;;;;;;13.75;9.05;;;;;;;;;;4974386;28;20039;-79
2023/04/29 04:34:08;;;;;;;12.02;7.35;;;;;;;;;;4992125;28;20037;-79
2023/04/29 04:36:36;;;;;;;21.80;7.95;;;;;;;;;;4989461;28;20073;-79
2023/04/29 04:39:02;;;;;;;13.35;6.80;;;;;;;;;;4988060;28;20489;-80
2023/04/29 04:41:30;;;;;;;9.93;7.22;;;;;;;;;;4972227;28;20042;-78
2023/04/29 04:43:57;;;;;;;15.43;7.75;;;;;;;;;;4972661;28;20083;-78
2023/04/29 04:46:41;;;;;;;9.17;6.27;;;;;;;;;;4973718;28;20500;-77
2023/04/29 04:49:17;;;;;;;11.73;6.90;;;;;;;;;;4990682;28;20038;-76
2023/04/29 04:52:03;;;;;;;11.77;6.55;;;;;;;;;;4976706;28;20049;-79
2023/04/29 04:54:31;;;;;;;13.55;7.03;;;;;;;;;;4974864;28;20088;-79
2023/04/29 04:57:07;;;;;;;12.27;6.28;;;;;;;;;;4974552;28;20019;-78
2023/04/29 04:59:33;;;;;;;15.55;6.93;;;;;;;;;;4990685;28;20039;-78
2023/04/29 05:01:59;;;;;;;21.45;8.13;;;;;;;;;;4974409;28;20023;-77
2023/04/29 05:04:25;;;;;;;16.75;8.60;;;;;;;;;;4990495;28;20027;-76
2023/04/29 05:06:50;;;;;;;19.30;8.57;;;;;;;;;;4974410;28;20030;-79
2023/04/29 05:09:19;;;;;;;21.83;8.27;;;;;;;;;;4974637;28;20035;-78
2023/04/29 05:11:45;;;;;;;21.10;9.32;;;;;;;;;;4988753;28;20124;-79
2023/04/29 05:14:21;;;;;;;16.15;7.93;;;;;;;;;;4975226;28;20026;-79
2023/04/29 05:16:47;;;;;;;13.23;7.90;;;;;;;;;;4974087;28;20027;-78
2023/04/29 05:19:13;;;;;;;31.80;9.85;;;;;;;;;;4989965;28;20508;-79
2023/04/29 05:21:40;;;;;;;17.25;8.48;;;;;;;;;;4975824;28;20042;-79
2023/04/29 05:24:09;;;;;;;15.30;8.00;;;;;;;;;;4989790;28;20373;-79
2023/04/29 05:26:37;;;;;;;19.63;8.18;;;;;;;;;;4974797;28;20110;-78
2023/04/29 05:29:04;;;;;;;14.68;8.30;;;;;;;;;;4973769;28;20109;-77
2023/04/29 05:31:37;;;;;;;12.30;7.53;;;;;;;;;;4973697;28;20063;-77
2023/04/29 05:34:04;;;;;;;15.95;7.25;;;;;;;;;;4989442;28;20042;-79
2023/04/29 05:36:32;;;;;;;8.38;5.93;;;;;;;;;;4973194;28;20041;-78
2023/04/29 05:38:57;;;;;;;11.82;5.72;;;;;;;;;;4974631;28;20031;-77
2023/04/29 05:41:24;;;;;;;8.65;5.75;;;;;;;;;;4989704;28;20402;-80
2023/04/29 05:44:14;;;;;;;13.05;6.25;;;;;;;;;;4989659;28;20034;-80
2023/04/29 05:46:40;;;;;;;8.82;5.32;;;;;;;;;;4973532;28;20038;-80
2023/04/29 05:49:06;;;;;;;12.43;5.60;;;;;;;;;;4973228;28;20030;-79
2023/04/29 05:51:35;;;;;;;10.88;6.30;;;;;;;;;;4989770;28;20408;-82
2023/04/29 05:54:00;;;;;;;13.98;6.07;;;;;;;;;;4973333;28;20046;-78
2023/04/29 05:56:28;;;;;;;17.48;6.95;;;;;;;;;;4972942;28;20386;-81
2023/04/29 05:58:55;;;;;;;14.57;5.75;;;;;;;;;;4988560;28;20045;-78
2023/04/29 06:01:20;;;;;;;12.40;6.45;;;;;;;;;;4989228;28;20650;-79
2023/04/29 06:03:46;;;;;;;9.63;5.72;;;;;;;;;;4973015;28;20038;-78
2023/04/29 06:06:31;;;;;;;11.30;5.95;;;;;;;;;;4974412;28;20047;-78
2023/04/29 06:09:17;;;;;;;19.27;6.50;;;;;;;;;;4988599;28;20027;-79
2023/04/29 06:11:44;;;;;;;12.05;6.55;;;;;;;;;;4989390;28;20027;-79
2023/04/29 06:14:10;;;;;;;10.82;5.75;;;;;;;;;;4973916;28;20026;-78
2023/04/29 06:16:38;;;;;;;8.25;5.63;;;;;;;;;;4974319;28;20382;-78
2023/04/29 06:19:04;;;;;;;12.50;5.80;;;;;;;;;;4987955;28;20189;-78
2023/04/29 06:21:31;;;;;;;10.43;6.30;;;;;;;;;;4987943;28;20540;-78
2023/04/29 06:23:59;;;;;;;16.10;7.15;;;;;;;;;;4988688;28;20023;-78
2023/04/29 06:26:25;;;;;;;16.10;6.07;;;;;;;;;;4973583;28;20026;-78
2023/04/29 06:28:50;;;;;;;14.30;6.75;;;;;;;;;;4971425;28;20098;-79
2023/04/29 06:31:17;;;;;;;8.93;6.18;;;;;;;;;;4987916;28;20138;-79
2023/04/29 06:33:43;;;;;;;13.80;6.43;;;;;;;;;;4955403;28;20034;-77
2023/04/29 06:36:09;;;;;;;7.80;5.15;;;;;;;;;;4988326;28;20053;-78
2023/04/29 06:38:54;;;;;;;8.50;5.65;;;;;;;;;;4973781;28;20096;-79
2023/04/29 06:41:39;;;;;;;9.93;5.45;;;;;;;;;;4974010;28;20043;-78
2023/04/29 06:44:42;;;;;;;10.10;5.68;;;;;;;;;;4964113;28;20051;-79
2023/04/29 06:47:26;;;;;;;14.20;5.68;;;;;;;;;;4973538;28;20113;-79
2023/04/29 06:50:19;;;;;;;9.52;5.60;;;;;;;;;;4971098;28;20535;-79
2023/04/29 06:52:44;;;;;;;10.32;5.95;;;;;;;;;;4971618;28;20039;-78
2023/04/29 06:55:11;;;;;;;11.10;5.45;;;;;;;;;;4988366;28;20035;-78
2023/04/29 06:57:40;;;;;;;15.60;6.13;;;;;;;;;;4972206;28;20133;-79
2023/04/29 07:00:07;;;;;;;7.13;5.47;;;;;;;;;;4955529;28;20445;-80
2023/04/29 07:02:34;;;;;;;7.47;5.10;;;;;;;;;;4972758;28;20030;-78
2023/04/29 07:05:05;;;;;;;15.88;5.82;;;;;;;;;;4987912;28;20035;-80
2023/04/29 07:07:31;;;;;;;7.13;4.25;;;;;;;;;;4971276;28;20220;-78
2023/04/29 07:09:56;;;;;;;8.98;5.57;;;;;;;;;;4972296;28;20109;-80
2023/04/29 07:12:22;;;;;;;7.68;5.03;;;;;;;;;;4971566;28;20046;-79
2023/04/29 07:14:53;;;;;;;9.32;4.32;;;;;;;;;;4971454;28;20027;-78
2023/04/29 07:17:19;;;;;;;10.45;4.47;;;;;;;;;;4971706;28;20038;-80
2023/04/29 07:19:46;;;;;;;5.88;4.22;;;;;;;;;;4970920;28;20066;-79
2023/04/29 07:22:11;;;;;;;9.75;4.50;;;;;;;;;;4971762;28;20180;-79
2023/04/29 07:24:38;;;;;;;8.98;4.57;;;;;;;;;;4971837;28;20578;-78
2023/04/29 07:27:06;;;;;;;7.70;4.78;;;;;;;;;;4972537;28;20031;-80
2023/04/29 07:29:32;;;;;;;7.05;4.40;;;;;;;;;;4971444;28;20030;-78
2023/04/29 07:31:59;;;;;;;9.57;4.80;;;;;;;;;;4971983;28;20035;-80
2023/04/29 07:34:26;;;;;;;8.23;5.13;;;;;;;;;;4974139;28;20019;-79
2023/04/29 07:36:52;;;;;;;13.00;6.82;;;;;;;;;;4970943;28;20037;-77
2023/04/29 07:39:18;;;;;;;8.98;4.93;;;;;;;;;;4955111;28;20023;-79
2023/04/29 07:41:47;;;;;;;10.13;4.40;;;;;;;;;;4971545;28;20081;-78
2023/04/29 07:44:13;;;;;;;12.82;4.53;;;;;;;;;;4970782;28;20034;-79
2023/04/29 07:46:41;;;;;;;9.80;4.55;;;;;;;;;;4971202;28;20129;-78
2023/04/29 07:49:07;;;;;;;6.18;3.90;;;;;;;;;;4987335;28;20053;-78
2023/04/29 07:51:33;;;;;;;5.30;3.88;;;;;;;;;;4987387;28;20034;-78
2023/04/29 07:54:00;;;;;;;8.00;3.90;;;;;;;;;;4972589;28;20098;-77
2023/04/29 07:56:27;;;;;;;10.38;4.75;;;;;;;;;;4971686;28;20110;-79
2023/04/29 07:58:53;;;;;;;8.55;3.75;;;;;;;;;;4954695;28;20065;-79
2023/04/29 08:01:20;;;;;;;7.47;3.55;;;;;;;;;;4987123;28;20446;-78
2023/04/29 08:03:47;;;;;;;8.50;3.70;;;;;;;;;;4970455;28;20027;-77
2023/04/29 08:06:16;;;;;;;7.93;3.65;;;;;;;;;;4971189;28;20378;-80
2023/04/29 08:08:42;;;;;;;9.50;4.13;;;;;;;;;;4971123;28;20117;-81
2023/04/29 08:11:17;;;;;;;8.10;3.50;;;;;;;;;;4987730;28;20035;-81
2023/04/29 08:13:44;;;;;;;8.95;3.78;;;;;;;;;;4971784;28;20146;-79
2023/04/29 08:16:10;;;;;;;7.25;3.50;;;;;;;;;;4971401;28;20030;-77
2023/04/29 08:18:37;;;;;;;7.13;4.22;;;;;;;;;;4972517;28;20047;-77
2023/04/29 08:21:05;;;;;;;5.68;3.65;;;;;;;;;;4974299;28;20031;-79
2023/04/29 08:23:33;;;;;;;8.52;4.20;;;;;;;;;;4976706;28;20045;-79
2023/04/29 08:25:58;;;;;;;8.50;4.40;;;;;;;;;;4976461;28;20050;-79
2023/04/29 08:28:25;;;;;;;7.28;4.03;;;;;;;;;;4990986;28;20508;-78
2023/04/29 08:30:51;;;;;;;9.07;4.22;;;;;;;;;;4976198;28;20118;-80
2023/04/29 08:33:17;;;;;;;6.70;3.65;;;;;;;;;;4975969;28;20113;-79
2023/04/29 08:35:43;;;;;;;13.70;4.13;;;;;;;;;;4976549;28;20070;-79
2023/04/29 08:38:09;;;;;;;8.20;4.38;;;;;;;;;;4976340;28;20039;-79
2023/04/29 08:40:40;;;;;;;6.88;3.85;;;;;;;;;;4976510;28;20481;-78
2023/04/29 08:43:08;;;;;;;6.15;3.55;;;;;;;;;;4976829;28;20039;-79
2023/04/29 08:45:35;;;;;;;7.72;4.03;;;;;;;;;;4974811;28;20062;-79
2023/04/29 08:48:06;;;;;;;8.38;3.92;;;;;;;;;;4975046;28;20176;-81
2023/04/29 08:50:39;;;;;;;7.00;3.72;;;;;;;;;;4974974;28;20038;-79
2023/04/29 08:53:10;;;;;;;9.80;3.60;;;;;;;;;;4958203;28;20039;-80
2023/04/29 08:55:43;;;;;;;5.45;3.25;;;;;;;;;;4958222;28;20034;-79
2023/04/29 08:58:12;;;;;;;5.40;3.70;;;;;;;;;;4975691;28;20038;-78
2023/04/29 09:00:39;;;;;;;7.93;4.05;;;;;;;;;;4975105;28;20479;-77
2023/04/29 09:03:17;;;;;;;6.13;3.40;;;;;;;;;;4975473;28;20042;-77
2023/04/29 09:05:49;;;;;;;9.15;3.92;;;;;;;;;;4976231;28;20125;-77
2023/04/29 09:08:16;;;;;;;5.15;3.03;;;;;;;;;;4973911;28;20116;-80
2023/04/29 09:10:42;;;;;;;8.38;3.35;;;;;;;;;;4975005;28;20109;-77
2023/04/29 09:13:35;;;;;;;7.85;3.70;;;;;;;;;;4974474;28;20031;-78
2023/04/29 09:16:01;;;;;;;8.15;3.38;;;;;;;;;;4974450;28;20045;-79
2023/04/29 09:18:47;;;;;;;4.78;3.20;;;;;;;;;;4974078;28;20113;-79
2023/04/29 09:21:18;;;;;;;6.00;2.95;;;;;;;;;;4957904;28;20042;-78
2023/04/29 09:23:45;;;;;;;10.98;3.28;;;;;;;;;;4973738;28;20110;-77
2023/04/29 09:26:14;;;;;;;9.27;3.83;;;;;;;;;;4974530;28;20118;-79
2023/04/29 09:28:42;;;;;;;6.10;3.15;;;;;;;;;;4974981;28;20497;-78
2023/04/29 09:31:08;;;;;;;5.00;3.50;;;;;;;;;;4989472;28;20687;-78
2023/04/29 09:33:50;;;;;;;10.85;3.15;;;;;;;;;;4974791;28;20138;-78
2023/04/29 09:36:36;;;;;;;8.38;3.45;;;;;;;;;;4975161;28;20038;-78
2023/04/29 09:39:05;;;;;;;11.70;3.17;;;;;;;;;;4989150;28;20126;-79
2023/04/29 09:41:31;;;;;;;5.32;2.90;;;;;;;;;;4973093;28;20026;-77
2023/04/29 09:44:07;;;;;;;6.13;2.80;;;;;;;;;;4988393;28;20031;-77
2023/04/29 09:46:35;;;;;;;8.23;3.20;;;;;;;;;;4974963;28;20062;-78
2023/04/29 09:49:05;;;;;;;7.65;3.20;;;;;;;;;;4973372;28;20042;-77
2023/04/29 09:51:31;;;;;;;6.68;3.10;;;;;;;;;;4972921;28;20059;-78
2023/04/29 09:54:00;;;;;;;4.45;3.05;;;;;;;;;;4974519;28;20097;-79
2023/04/29 09:56:29;;;;;;;6.38;3.28;;;;;;;;;;4974707;28;20031;-78
2023/04/29 09:58:56;;;;;;;9.70;4.00;;;;;;;;;;4973037;28;20031;-78
2023/04/29 10:01:23;;;;;;;5.40;2.72;;;;;;;;;;4989068;28;20493;-76
2023/04/29 10:03:52;;;;;;;7.65;2.88;;;;;;;;;;4974539;28;20023;-79
2023/04/29 10:06:19;;;;;;;6.60;2.80;;;;;;;;;;4974274;28;20114;-77
2023/04/29 10:08:47;;;;;;;4.35;2.45;;;;;;;;;;4974434;28;20496;-78
2023/04/29 10:11:14;;;;;;;8.30;3.25;;;;;;;;;;4972687;28;20401;-77
2023/04/29 10:13:43;;;;;;;6.20;2.60;;;;;;;;;;4974303;28;20026;-78
2023/04/29 10:16:16;;;;;;;6.45;2.72;;;;;;;;;;4988785;28;20050;-78
2023/04/29 10:18:50;;;;;;;10.30;4.00;;;;;;;;;;4974315;28;20039;-78
2023/04/29 10:21:21;;;;;;;5.70;3.05;;;;;;;;;;4988842;28;20034;-77
2023/04/29 10:23:48;;;;;;;6.35;2.70;;;;;;;;;;4973947;28;20073;-79
2023/04/29 10:26:17;;;;;;;5.55;2.70;;;;;;;;;;4973961;28;20503;-80
2023/04/29 10:28:44;;;;;;;8.25;3.55;;;;;;;;;;4974604;28;20034;-78
2023/04/29 10:31:12;;;;;;;6.43;3.05;;;;;;;;;;4973780;28;20027;-78
2023/04/29 10:33:40;;;;;;;11.30;2.88;;;;;;;;;;4988969;28;20316;-79
2023/04/29 10:36:09;;;;;;;5.65;2.63;;;;;;;;;;4974206;28;20035;-78
2023/04/29 10:38:47;;;;;;;4.25;2.50;;;;;;;;;;4972829;28;20066;-77
2023/04/29 10:41:27;;;;;;;8.18;5.22;;;;;;;;;;4972696;28;20042;-78
2023/04/29 10:43:54;;;;;;;6.72;3.42;;;;;;;;;;4967908;28;20031;-78
2023/04/29 10:46:22;;;;;;;3.72;2.50;;;;;;;;;;4973578;28;20026;-76
2023/04/29 10:48:55;;;;;;;6.97;2.88;;;;;;;;;;4973684;28;20109;-78
2023/04/29 10:51:34;;;;;;;8.30;3.10;;;;;;;;;;4973657;28;20421;-77
2023/04/29 10:54:13;;;;;;;9.05;5.03;;;;;;;;;;4967088;28;20055;-77
2023/04/29 10:56:53;;;;;;;6.28;2.83;;;;;;;;;;4972273;28;20405;-78
2023/04/29 10:59:22;;;;;;;5.82;2.97;;;;;;;;;;4970778;28;20023;-78
2023/04/29 11:01:52;;;;;;;6.80;3.42;;;;;;;;;;4974088;28;20034;-77
2023/04/29 11:04:20;;;;;;;9.57;3.08;;;;;;;;;;4973484;28;20370;-77
2023/04/29 11:06:55;;;;;;;6.55;2.40;;;;;;;;;;4973199;28;20051;-77
2023/04/29 11:09:24;;;;;;;4.85;2.70;;;;;;;;;;4967271;28;20038;-77
2023/04/29 11:12:04;;;;;;;5.53;2.92;;;;;;;;;;4987831;28;20077;-77
2023/04/29 11:15:02;;;;;;;4.95;3.05;;;;;;;;;;4973203;28;20068;-78
2023/04/29 11:17:35;;;;;;;9.13;3.28;;;;;;;;;;4973269;28;20061;-79
2023/04/29 11:20:01;;;;;;;11.68;3.70;;;;;;;;;;4972757;28;20038;-79
2023/04/29 11:22:32;;;;;;;6.35;2.67;;;;;;;;;;4971960;28;20033;-78
2023/04/29 11:25:06;;;;;;;5.97;2.33;;;;;;;;;;4973011;28;20038;-77
2023/04/29 11:27:32;;;;;;;4.80;2.47;;;;;;;;;;4973119;28;20038;-77
2023/04/29 11:30:00;;;;;;;6.78;2.47;;;;;;;;;;4971766;28;20122;-77
2023/04/29 11:32:28;;;;;;;9.50;2.38;;;;;;;;;;4973958;28;20073;-78
2023/04/29 11:34:54;;;;;;;6.63;3.00;;;;;;;;;;4971571;28;20018;-77
2023/04/29 11:37:26;;;;;;;7.80;4.60;;;;;;;;;;4972698;28;20062;-78
2023/04/29 11:39:58;;;;;;;10.05;3.85;;;;;;;;;;4973350;28;20105;-78
2023/04/29 11:42:26;;;;;;;10.95;3.33;;;;;;;;;;4973111;28;20034;-78
2023/04/29 11:44:56;;;;;;;5.97;2.55;;;;;;;;;;4972870;28;20035;-78
2023/04/29 11:47:29;;;;;;;5.43;2.60;;;;;;;;;;4971738;28;20039;-79
2023/04/29 11:50:07;;;;;;;6.65;3.20;;;;;;;;;;4971677;28;20049;-76
2023/04/29 11:52:35;;;;;;;11.20;3.30;;;;;;;;;;4972822;28;20504;-79
2023/04/29 11:55:02;;;;;;;24.60;14.45;;;;;;;;;;4974375;28;20448;-79
2023/04/29 11:57:28;;;;;;;9.05;4.07;;;;;;;;;;4975739;28;20039;-77
2023/04/29 11:59:54;;;;;;;6.82;2.70;;;;;;;;;;4976864;28;20465;-77
2023/04/29 12:02:31;;;;;;;4.20;2.15;;;;;;;;;;4975506;28;20046;-79
2023/04/29 12:04:59;;;;;;;4.68;2.60;;;;;;;;;;4975452;28;20042;-78
2023/04/29 12:07:25;;;;;;;7.30;2.30;;;;;;;;;;4943678;28;20413;-79
2023/04/29 12:09:51;;;;;;;7.53;2.88;;;;;;;;;;4978072;28;20520;-78
2023/04/29 12:12:18;;;;;;;6.10;3.25;;;;;;;;;;4975926;28;20034;-79
2023/04/29 12:14:44;;;;;;;7.82;2.60;;;;;;;;;;4959268;28;20037;-79
2023/04/29 12:17:11;;;;;;;11.20;4.88;;;;;;;;;;4975205;28;20122;-79
2023/04/29 12:19:38;;;;;;;8.75;4.60;;;;;;;;;;4976535;28;20039;-79
2023/04/29 12:22:05;;;;;;;7.05;3.45;;;;;;;;;;4976498;28;20126;-79
2023/04/29 12:24:38;;;;;;;4.80;2.50;;;;;;;;;;4975993;28;20043;-78
2023/04/29 12:27:07;;;;;;;7.13;2.90;;;;;;;;;;4969984;28;20027;-76
2023/04/29 12:29:37;;;;;;;6.70;2.17;;;;;;;;;;4976073;28;20079;-78
2023/04/29 12:32:04;;;;;;;8.13;2.50;;;;;;;;;;4968526;28;20496;-78
2023/04/29 12:34:32;;;;;;;8.55;2.60;;;;;;;;;;4976076;28;20030;-77
2023/04/29 12:36:59;;;;;;;5.85;2.47;;;;;;;;;;4990860;28;20512;-78
2023/04/29 12:39:26;;;;;;;5.95;2.47;;;;;;;;;;4976658;28;20027;-80
2023/04/29 12:41:59;;;;;;;13.27;7.05;;;;;;;;;;4976160;28;20053;-78
2023/04/29 12:44:35;;;;;;;7.80;4.45;;;;;;;;;;4975009;28;20035;-77
2023/04/29 12:47:07;;;;;;;7.13;3.65;;;;;;;;;;4950373;28;20509;-78
2023/04/29 12:49:34;;;;;;;;;;;;;;;;;;4974470;28;20038;-78
2023/04/29 12:51:59;;;;;;;8.20;4.35;;;;;;;;;;4975651;28;19910;-79
2023/04/29 12:54:26;;;;;;;7.30;2.75;;;;;;;;;;4975879;28;20073;-80
2023/04/29 12:56:55;;;;;;;7.75;2.70;;;;;;;;;;4992003;28;20027;-78
2023/04/29 12:59:21;;;;;;;4.18;2.40;;;;;;;;;;4991547;28;20030;-79
2023/04/29 13:01:47;;;;;;;5.78;2.88;;;;;;;;;;4957026;28;20082;-80
2023/04/29 13:04:14;;;;;;;4.90;2.80;;;;;;;;;;4974783;28;20474;-79
2023/04/29 13:06:40;;;;;;;9.13;5.13;;;;;;;;;;4973143;28;20026;-77
2023/04/29 13:09:10;;;;;;;7.03;2.75;;;;;;;;;;4974764;28;20050;-78
2023/04/29 13:11:38;;;;;;;5.10;2.28;;;;;;;;;;4974573;28;20129;-78
2023/04/29 13:14:05;;;;;;;3.38;2.03;;;;;;;;;;4973614;28;20026;-79
2023/04/29 13:16:34;;;;;;;9.45;2.60;;;;;;;;;;4957986;28;20047;-77
2023/04/29 13:19:01;;;;;;;4.93;2.25;;;;;;;;;;4974958;28;20046;-78
2023/04/29 13:21:27;;;;;;;4.80;1.90;;;;;;;;;;4972771;28;20050;-79
2023/04/29 13:23:54;;;;;;;3.45;2.08;;;;;;;;;;4975334;28;20027;-78
2023/04/29 13:26:20;;;;;;;4.93;2.20;;;;;;;;;;4973910;28;20086;-78
2023/04/29 13:28:46;;;;;;;8.45;2.72;;;;;;;;;;4974331;28;20030;-78
2023/04/29 13:31:12;;;;;;;5.15;2.25;;;;;;;;;;4975427;28;20049;-77
2023/04/29 13:33:38;;;;;;;8.43;2.55;;;;;;;;;;4973875;28;20539;-78
2023/04/29 13:36:04;;;;;;;7.30;2.50;;;;;;;;;;4988638;28;20062;-78
2023/04/29 13:38:31;;;;;;;9.15;3.30;;;;;;;;;;4974241;28;20035;-78
2023/04/29 13:40:58;;;;;;;10.82;2.58;;;;;;;;;;4957298;28;20137;-78
2023/04/29 13:43:24;;;;;;;5.95;2.20;;;;;;;;;;4974803;28;20031;-78
2023/04/29 13:45:53;;;;;;;6.03;2.75;;;;;;;;;;4973594;28;20129;-80
2023/04/29 13:48:22;;;;;;;4.97;2.38;;;;;;;;;;4974238;28;20031;-79
2023/04/29 13:50:48;;;;;;;5.80;2.40;;;;;;;;;;4974332;28;20050;-78
2023/04/29 13:53:15;;;;;;;3.42;2.10;;;;;;;;;;4973706;28;20102;-79
2023/04/29 13:55:42;;;;;;;7.40;2.80;;;;;;;;;;4989534;28;20041;-80
2023/04/29 13:58:08;;;;;;;4.78;2.42;;;;;;;;;;4974434;28;20030;-80
2023/04/29 14:00:34;;;;;;;6.03;2.47;;;;;;;;;;4973017;28;20105;-77
2023/04/29 14:03:00;;;;;;;9.15;2.33;;;;;;;;;;4972840;28;20378;-77
2023/04/29 14:05:27;;;;;;;7.72;2.50;;;;;;;;;;4972827;28;20066;-77
2023/04/29 14:07:53;;;;;;;5.63;2.42;;;;;;;;;;4974216;28;20213;-77
2023/04/29 14:10:20;;;;;;;5.53;2.80;;;;;;;;;;4973010;28;20034;-76
2023/04/29 14:12:47;;;;;;;11.77;3.00;;;;;;;;;;4973372;28;20027;-75
2023/04/29 14:15:14;;;;;;;6.03;2.65;;;;;;;;;;4974032;28;20039;-77
2023/04/29 14:17:39;;;;;;;5.65;2.90;;;;;;;;;;4973362;28;20031;-77
2023/04/29 14:20:06;;;;;;;4.55;2.83;;;;;;;;;;4988191;28;20039;-77
2023/04/29 14:22:32;;;;;;;6.45;2.65;;;;;;;;;;4973055;28;20073;-76
2023/04/29 14:24:59;;;;;;;5.65;2.55;;;;;;;;;;4971553;28;20400;-76
2023/04/29 14:27:25;;;;;;;4.80;2.28;;;;;;;;;;4973868;28;20022;-77
2023/04/29 14:29:51;;;;;;;6.10;2.50;;;;;;;;;;4973610;28;20117;-78
2023/04/29 14:32:18;;;;;;;6.60;3.10;;;;;;;;;;4988497;28;20025;-78
2023/04/29 14:34:44;;;;;;;5.97;3.03;;;;;;;;;;4973601;28;20027;-78
2023/04/29 14:37:10;;;;;;;7.97;3.03;;;;;;;;;;4972990;28;20031;-78
2023/04/29 14:39:43;;;;;;;5.47;2.88;;;;;;;;;;5089396;27;20394;-71
2023/04/29 14:42:11;;;;;;;6.38;3.05;;;;;;;;;;5079977;28;20395;-70
2023/04/29 14:44:37;;;;;;;8.45;3.58;;;;;;;;;;5080550;28;20028;-72
2023/04/29 14:47:03;;;;;;;8.63;3.25;;;;;;;;;;5068458;28;20032;-71
2023/04/29 14:49:29;;;;;;;5.82;3.20;;;;;;;;;;5069660;28;20475;-70
2023/04/29 14:51:55;;;;;;;6.85;2.55;;;;;;;;;;5067019;28;20126;-71